^^
Meteo Knjazevac Station Historical Data
Daily Summary for August 7, 2021 Units:  Metric    English   Both
Daily Weekly Monthly Yearly Custom
  High: Low: Average:
Temperature: 4.9 °C 4.1 °C 4.4 °C
Dew Point: 4.8 °C 3.9 °C 4.3 °C
Humidity: 99% 98% 99%
Wind Speed: 11.3km/h 0km/h 4.5km/h
Wind Gust: 22.5km/h - -
Wind- - SSE
Pressure: 1017.5 hPa 1013.1 hPa -
Precipitation: 4.32 mm    
Historical Graphs
 
 
Tabular Data for August 7, 2021
Time Temperature Dew Point Pressure Wind Wind Speed Wind Gust Humidity Rainfall Rate (Hourly) solar Conditions
00:00 4.5 °C 4.2 °C 1014.1 hPa NNE 8 km/h 12.9 km/h 98% 0 mm 0 W/m2
00:10 4.5 °C 4.2 °C 1014.1 hPa NNE 4.8 km/h 11.3 km/h 98% 0 mm 0 W/m2
00:20 4.4 °C 4.3 °C 1014.1 hPa NNE 4.8 km/h 8 km/h 99% 0 mm 0 W/m2
00:30 4.3 °C 4.2 °C 1014.1 hPa NNE 4.8 km/h 12.9 km/h 99% 0 mm 0 W/m2
00:40 4.2 °C 4.1 °C 1013.8 hPa NNE 4.8 km/h 9.7 km/h 99% 0 mm 0 W/m2
00:50 4.2 °C 4.1 °C 1013.8 hPa NNE 4.8 km/h 11.3 km/h 99% 0 mm 0 W/m2
01:00 4.2 °C 4.1 °C 1013.8 hPa NNE 3.2 km/h 11.3 km/h 99% 0 mm 0 W/m2
01:10 4.2 °C 4.1 °C 1013.8 hPa NNE 3.2 km/h 11.3 km/h 99% 0 mm 0 W/m2
01:20 4.2 °C 4.1 °C 1013.8 hPa North 1.6 km/h 6.4 km/h 99% 0 mm 0 W/m2
01:30 4.2 °C 4.1 °C 1013.8 hPa WNW 1.6 km/h 9.7 km/h 99% 0.25 mm 0 W/m2
01:40 4.2 °C 4.1 °C 1013.8 hPa North 1.6 km/h 6.4 km/h 99% 0 mm 0 W/m2
01:50 4.3 °C 4.2 °C 1013.8 hPa NNE 1.6 km/h 8 km/h 99% 0 mm 0 W/m2
02:00 4.3 °C 4.2 °C 1013.8 hPa NNW 3.2 km/h 4.8 km/h 99% 0 mm 0 W/m2
02:10 4.3 °C 4.2 °C 1013.8 hPa North 1.6 km/h 3.2 km/h 99% 0 mm 0 W/m2
02:20 4.3 °C 4.2 °C 1013.8 hPa Calm   4.8 km/h 99% 0 mm 0 W/m2
02:30 4.3 °C 4.2 °C 1013.8 hPa Calm   3.2 km/h 99% 0 mm 0 W/m2
02:40 4.2 °C 4.1 °C 1013.4 hPa West 1.6 km/h 4.8 km/h 99% 0 mm 0 W/m2
02:50 4.2 °C 4.1 °C 1013.4 hPa WNW 3.2 km/h 6.4 km/h 99% 0 mm 0 W/m2
03:00 4.3 °C 4.2 °C 1013.1 hPa NNE 1.6 km/h 6.4 km/h 99% 0.25 mm 0 W/m2
03:10 4.3 °C 4.2 °C 1013.1 hPa NNE 3.2 km/h 8 km/h 99% 0 mm 0 W/m2
03:20 4.3 °C 4.2 °C 1013.1 hPa North 3.2 km/h 11.3 km/h 99% 0 mm 0 W/m2
03:30 4.3 °C 4.2 °C 1013.4 hPa NNE 4.8 km/h 14.5 km/h 99% 0 mm 0 W/m2
03:40 4.3 °C 4.2 °C 1013.8 hPa Calm   12.9 km/h 99% 0 mm 0 W/m2
03:50 4.2 °C 4.1 °C 1013.8 hPa NNE 8 km/h 14.5 km/h 99% 0.25 mm 0 W/m2
04:00 4.2 °C 4.1 °C 1013.8 hPa NNE 11.3 km/h 20.9 km/h 99% 0.25 mm 0 W/m2
04:10 4.1 °C 3.9 °C 1013.8 hPa NNE 8 km/h 19.3 km/h 99% 0 mm 0 W/m2
04:20 4.1 °C 3.9 °C 1014.1 hPa NNE 9.7 km/h 22.5 km/h 99% 0 mm 0 W/m2
04:30 4.2 °C 4.1 °C 1014.4 hPa NNE 9.7 km/h 22.5 km/h 99% 0.25 mm 0 W/m2
04:40 4.3 °C 4.2 °C 1014.4 hPa NNE 8 km/h 16.1 km/h 99% 0.25 mm 0 W/m2
04:50 4.5 °C 4.3 °C 1014.8 hPa NNW 8 km/h 20.9 km/h 99% 0 mm 0 W/m2
05:00 4.8 °C 4.7 °C 1015.1 hPa WNW 8 km/h 20.9 km/h 99% 0 mm 0 W/m2
05:10 4.9 °C 4.8 °C 1015.1 hPa WNW 11.3 km/h 19.3 km/h 99% 0 mm 0 W/m2
05:20 4.9 °C 4.8 °C 1015.1 hPa WSW 8 km/h 19.3 km/h 99% 0.25 mm 0 W/m2
05:30 4.9 °C 4.8 °C 1015.1 hPa WSW 8 km/h 16.1 km/h 99% 0 mm 0 W/m2
05:40 4.9 °C 4.8 °C 1015.5 hPa West 1.6 km/h 14.5 km/h 99% 0 mm 0 W/m2
05:50 4.9 °C 4.8 °C 1015.5 hPa WSW 4.8 km/h 11.3 km/h 99% 0 mm 0 W/m2
06:00 4.8 °C 4.7 °C 1015.8 hPa WSW 4.8 km/h 11.3 km/h 99% 0 mm 0 W/m2
06:10 4.8 °C 4.7 °C 1016.1 hPa WSW 3.2 km/h 11.3 km/h 99% 0.25 mm 0 W/m2
06:20 4.8 °C 4.7 °C 1016.1 hPa WSW 4.8 km/h 8 km/h 99% 0.25 mm 0 W/m2
06:30 4.7 °C 4.6 °C 1016.1 hPa West 4.8 km/h 16.1 km/h 99% 0.51 mm 0 W/m2
06:40 4.7 °C 4.6 °C 1016.1 hPa West 3.2 km/h 11.3 km/h 99% 0.51 mm 0 W/m2
06:50 4.6 °C 4.4 °C 1016.5 hPa SW 4.8 km/h 9.7 km/h 99% 0.25 mm 0 W/m2
07:00 4.6 °C 4.4 °C 1016.1 hPa Calm   8 km/h 99% 0.25 mm 0 W/m2
07:10 4.5 °C 4.3 °C 1016.5 hPa SSW 3.2 km/h 8 km/h 99% 0 mm 0 W/m2
07:20 4.5 °C 4.3 °C 1016.5 hPa SE 3.2 km/h 8 km/h 99% 0 mm 2 W/m2
07:30 4.5 °C 4.3 °C 1016.5 hPa East 4.8 km/h 8 km/h 99% 0 mm 4 W/m2
07:40 4.5 °C 4.3 °C 1016.8 hPa Calm   8 km/h 99% 0 mm 3 W/m2
07:50 4.5 °C 4.3 °C 1016.8 hPa SSW 4.8 km/h 8 km/h 99% 0.25 mm 7 W/m2
08:00 4.4 °C 4.3 °C 1017.2 hPa SSW 3.2 km/h 8 km/h 99% 0 mm 10 W/m2
08:10 4.3 °C 4.2 °C 1017.5 hPa SSW 4.8 km/h 8 km/h 99% 0 mm 13 W/m2
Knjazevac, Serbia
Compliments of Weather Underground - 2 mb